createdAt,value
2023-04-11T00:01:23.715Z,14.41
2023-04-11T00:03:50.933Z,14.30
2023-04-11T00:06:17.879Z,14.47
2023-04-11T00:08:44.697Z,14.66
2023-04-11T00:11:11.450Z,14.38
2023-04-11T00:13:38.434Z,14.25
2023-04-11T00:16:08.804Z,14.30
2023-04-11T00:18:37.183Z,14.17
2023-04-11T00:21:04.252Z,14.37
2023-04-11T00:23:30.995Z,14.13
2023-04-11T00:25:58.787Z,14.41
2023-04-11T00:28:25.516Z,14.47
2023-04-11T00:30:52.220Z,14.60
2023-04-11T00:33:18.988Z,14.34
2023-04-11T00:35:45.992Z,13.95
2023-04-11T00:38:12.789Z,13.75
2023-04-11T00:40:40.197Z,14.08
2023-04-11T00:43:06.887Z,13.82
2023-04-11T00:45:33.792Z,13.52
2023-04-11T00:48:01.153Z,13.88
2023-04-11T00:50:28.555Z,13.88
2023-04-11T00:52:56.800Z,13.85
2023-04-11T00:55:24.103Z,13.50
2023-04-11T00:57:54.213Z,13.73
2023-04-11T01:00:21.080Z,13.57
2023-04-11T01:02:47.899Z,13.43
2023-04-11T01:05:15.428Z,13.65
2023-04-11T01:07:45.691Z,13.42
2023-04-11T01:10:12.884Z,13.34
2023-04-11T01:12:40.490Z,13.47
2023-04-11T01:15:07.540Z,13.78
2023-04-11T01:17:34.380Z,14.06
2023-04-11T01:20:01.347Z,14.02
2023-04-11T01:22:29.185Z,13.84
2023-04-11T01:24:56.390Z,13.95
2023-04-11T01:27:23.364Z,13.79
2023-04-11T01:29:51.056Z,13.64
2023-04-11T01:32:17.947Z,13.90
2023-04-11T01:34:46.950Z,13.99
2023-04-11T01:37:13.863Z,13.70
2023-04-11T01:39:40.962Z,13.73
2023-04-11T01:42:08.956Z,13.65
2023-04-11T01:44:36.844Z,13.52
2023-04-11T01:47:04.037Z,13.80
2023-04-11T01:49:30.881Z,13.71
2023-04-11T01:51:57.751Z,13.72
2023-04-11T01:54:24.626Z,13.13
2023-04-11T01:56:54.929Z,13.58
2023-04-11T01:59:21.762Z,13.43
2023-04-11T02:01:48.604Z,13.28
2023-04-11T02:04:15.548Z,13.08
2023-04-11T02:06:42.416Z,13.36
2023-04-11T02:09:09.280Z,13.37
2023-04-11T02:11:36.230Z,13.57
2023-04-11T02:14:03.901Z,13.20
2023-04-11T02:16:33.628Z,13.45
2023-04-11T02:19:00.422Z,13.57
2023-04-11T02:21:28.204Z,13.71
2023-04-11T02:23:57.857Z,13.59
2023-04-11T02:26:26.805Z,13.39
2023-04-11T02:28:55.898Z,13.58
2023-04-11T02:31:22.887Z,13.60
2023-04-11T02:33:49.621Z,13.62
2023-04-11T02:36:18.677Z,13.47
2023-04-11T02:38:45.380Z,13.58
2023-04-11T02:41:12.015Z,13.70
2023-04-11T02:43:38.719Z,13.83
2023-04-11T02:46:12.786Z,13.96
2023-04-11T02:48:42.063Z,13.92
2023-04-11T02:51:09.671Z,13.69
2023-04-11T02:53:36.488Z,13.71
2023-04-11T02:56:03.229Z,13.60
2023-04-11T02:58:30.209Z,13.46
2023-04-11T03:01:03.270Z,13.57
2023-04-11T03:03:30.069Z,13.38
2023-04-11T03:05:57.046Z,13.66
2023-04-11T03:08:26.168Z,13.44
2023-04-11T03:10:53.866Z,13.44
2023-04-11T03:13:22.785Z,13.25
2023-04-11T03:15:49.571Z,13.33
2023-04-11T03:18:16.832Z,13.53
2023-04-11T03:20:46.861Z,13.40
2023-04-11T03:23:15.551Z,13.12
2023-04-11T03:25:44.632Z,13.17
2023-04-11T03:28:12.695Z,13.20
2023-04-11T03:30:42.540Z,13.23
2023-04-11T03:33:12.139Z,13.09
2023-04-11T03:35:39.605Z,13.14
2023-04-11T03:38:06.358Z,13.03
2023-04-11T03:40:33.201Z,13.07
2023-04-11T03:43:10.594Z,12.92
2023-04-11T03:45:37.402Z,12.83
2023-04-11T03:48:09.126Z,12.79
2023-04-11T03:50:49.519Z,12.71
2023-04-11T03:53:20.514Z,12.73
2023-04-11T03:55:49.357Z,12.87
2023-04-11T03:58:18.196Z,12.89
2023-04-11T04:00:44.959Z,12.87
2023-04-11T04:03:13.762Z,12.66
2023-04-11T04:05:41.790Z,12.62
2023-04-11T04:08:11.188Z,12.63
2023-04-11T04:10:42.349Z,12.76
2023-04-11T04:13:10.633Z,12.78
2023-04-11T04:15:45.649Z,12.78
2023-04-11T04:18:14.031Z,12.76
2023-04-11T04:20:43.972Z,12.67
2023-04-11T04:23:13.991Z,12.59
2023-04-11T04:26:13.115Z,12.79
2023-04-11T04:28:46.231Z,12.69
2023-04-11T04:31:22.318Z,12.69
2023-04-11T04:33:50.559Z,12.60
2023-04-11T04:36:24.925Z,12.65
2023-04-11T04:38:52.084Z,12.69
2023-04-11T04:41:22.863Z,12.58
2023-04-11T04:43:58.233Z,12.46
2023-04-11T04:46:43.631Z,12.47
2023-04-11T04:49:10.906Z,12.40
2023-04-11T04:51:38.600Z,12.34
2023-04-11T04:54:05.956Z,12.22
2023-04-11T04:56:33.053Z,12.30
2023-04-11T04:58:59.851Z,12.41
2023-04-11T05:01:28.414Z,12.30
2023-04-11T05:03:59.598Z,12.28
2023-04-11T05:06:44.088Z,12.23
2023-04-11T05:09:11.271Z,12.37
2023-04-11T05:11:38.612Z,12.41
2023-04-11T05:14:08.452Z,12.34
2023-04-11T05:16:35.491Z,12.33
2023-04-11T05:19:02.348Z,12.48
2023-04-11T05:21:31.408Z,12.16
2023-04-11T05:23:58.314Z,12.42
2023-04-11T05:26:25.499Z,12.42
2023-04-11T05:28:52.256Z,12.53
2023-04-11T05:31:21.897Z,12.41
2023-04-11T05:33:49.141Z,12.24
2023-04-11T05:36:16.162Z,12.42
2023-04-11T05:38:44.220Z,12.20
2023-04-11T05:41:11.780Z,12.44
2023-04-11T05:43:38.871Z,12.50
2023-04-11T05:46:07.805Z,12.57
2023-04-11T05:48:34.695Z,12.78
2023-04-11T05:51:01.768Z,12.78
2023-04-11T05:53:29.100Z,12.70
2023-04-11T05:55:56.138Z,13.11
2023-04-11T05:58:23.542Z,13.13
2023-04-11T06:00:50.816Z,13.36
2023-04-11T06:03:17.684Z,13.52
2023-04-11T06:05:44.527Z,14.11
2023-04-11T06:08:11.996Z,13.91
2023-04-11T06:10:38.710Z,14.09
2023-04-11T06:13:05.402Z,14.37
2023-04-11T06:15:32.284Z,14.18
2023-04-11T06:17:58.988Z,13.95
2023-04-11T06:20:25.778Z,13.88
2023-04-11T06:22:52.819Z,13.68
2023-04-11T06:25:20.644Z,13.60
2023-04-11T06:27:48.032Z,13.82
2023-04-11T06:30:15.262Z,14.29
2023-04-11T06:32:42.297Z,14.81
2023-04-11T06:35:09.552Z,15.75
2023-04-11T06:37:36.283Z,15.89
2023-04-11T06:40:05.368Z,15.24
2023-04-11T06:42:32.401Z,15.77
2023-04-11T06:44:59.055Z,16.63
2023-04-11T06:47:25.903Z,17.96
2023-04-11T06:49:52.713Z,18.96
2023-04-11T06:52:19.419Z,19.50
2023-04-11T06:54:48.087Z,19.74
2023-04-11T06:57:14.908Z,18.99
2023-04-11T06:59:41.599Z,17.79
2023-04-11T07:02:08.355Z,18.64
2023-04-11T07:04:35.261Z,17.92
2023-04-11T07:07:02.146Z,15.75
2023-04-11T07:09:28.968Z,16.13
2023-04-11T07:11:56.212Z,15.69
2023-04-11T07:14:25.049Z,15.03
2023-04-11T07:16:51.814Z,15.12
2023-04-11T07:19:18.581Z,14.81
2023-04-11T07:21:48.832Z,14.58
2023-04-11T07:24:18.757Z,14.16
2023-04-11T07:26:46.411Z,14.25
2023-04-11T07:29:14.960Z,14.01
2023-04-11T07:31:42.010Z,14.24
2023-04-11T07:34:08.747Z,14.15
2023-04-11T07:36:35.950Z,14.38
2023-04-11T07:39:04.336Z,14.33
2023-04-11T07:41:31.179Z,14.67
2023-04-11T07:43:58.180Z,14.72
2023-04-11T07:46:25.045Z,14.59
2023-04-11T07:48:51.978Z,14.87
2023-04-11T07:51:18.866Z,14.41
2023-04-11T07:53:45.646Z,14.97
2023-04-11T07:56:12.396Z,15.17
2023-04-11T07:58:39.076Z,14.92
2023-04-11T08:01:09.062Z,15.10
2023-04-11T08:03:36.273Z,14.32
2023-04-11T08:06:03.158Z,15.07
2023-04-11T08:08:29.896Z,15.81
2023-04-11T08:10:56.577Z,16.44
2023-04-11T08:13:23.257Z,16.33
2023-04-11T08:15:50.037Z,15.69
2023-04-11T08:18:21.340Z,15.17
2023-04-11T08:20:48.786Z,14.49
2023-04-11T08:23:15.690Z,14.46
2023-04-11T08:25:42.506Z,14.52
2023-04-11T08:28:10.622Z,14.38
2023-04-11T08:30:37.406Z,13.95
2023-04-11T08:33:04.323Z,13.96
2023-04-11T08:35:31.122Z,16.00
2023-04-11T08:37:57.997Z,16.71
2023-04-11T08:40:26.896Z,16.23
2023-04-11T08:43:09.924Z,15.96
2023-04-11T08:45:36.670Z,15.30
2023-04-11T08:48:03.566Z,14.74
2023-04-11T08:50:30.590Z,14.67
2023-04-11T08:53:02.298Z,14.46
2023-04-11T08:55:30.022Z,14.74
2023-04-11T08:57:59.301Z,15.31
2023-04-11T09:00:28.763Z,15.07
2023-04-11T09:03:06.544Z,14.83
2023-04-11T09:05:38.614Z,14.54
2023-04-11T09:08:10.907Z,14.46
2023-04-11T09:10:39.196Z,14.75
2023-04-11T09:13:26.720Z,15.38
2023-04-11T09:16:05.868Z,15.96
2023-04-11T09:18:39.905Z,16.46
2023-04-11T09:21:08.829Z,18.39
2023-04-11T09:23:36.377Z,20.16
2023-04-11T09:26:06.076Z,20.96
2023-04-11T09:28:44.514Z,21.85
2023-04-11T09:31:14.394Z,22.02
2023-04-11T09:33:52.353Z,20.35
2023-04-11T09:36:21.504Z,18.69
2023-04-11T09:38:48.422Z,18.04
2023-04-11T09:41:15.590Z,17.88
2023-04-11T09:43:53.219Z,17.82
2023-04-11T09:46:21.257Z,17.54
2023-04-11T09:48:53.047Z,16.04
2023-04-11T09:51:34.944Z,16.19
2023-04-11T09:54:08.552Z,16.41
2023-04-11T09:56:36.930Z,15.94
2023-04-11T09:59:05.268Z,16.04
2023-04-11T10:01:32.414Z,16.59
2023-04-11T10:04:00.915Z,17.81
2023-04-11T10:06:38.555Z,18.55
2023-04-11T10:09:08.339Z,18.41
2023-04-11T10:11:35.909Z,17.82
2023-04-11T10:14:02.903Z,16.79
2023-04-11T10:16:32.476Z,16.30
2023-04-11T10:19:00.454Z,17.83
2023-04-11T10:21:30.246Z,19.39
2023-04-11T10:24:18.040Z,20.81
2023-04-11T10:26:55.048Z,23.30
2023-04-11T10:29:28.004Z,23.30
2023-04-11T10:32:19.266Z,25.81
2023-04-11T10:34:55.594Z,23.44
2023-04-11T10:37:35.234Z,22.05
2023-04-11T10:40:01.886Z,20.37
2023-04-11T10:42:30.408Z,20.01
2023-04-11T10:45:22.111Z,18.62
2023-04-11T10:47:51.720Z,17.86
2023-04-11T10:50:30.208Z,18.54
2023-04-11T10:53:00.838Z,19.96
2023-04-11T10:55:29.084Z,21.10
2023-04-11T10:58:22.573Z,22.06
2023-04-11T11:00:52.823Z,23.47
2023-04-11T11:03:31.438Z,25.13
2023-04-11T11:05:59.471Z,25.54
2023-04-11T11:08:38.089Z,25.99
2023-04-11T11:11:06.816Z,26.28
2023-04-11T11:13:40.806Z,23.54
2023-04-11T11:16:09.636Z,24.48
2023-04-11T11:18:37.276Z,22.53
2023-04-11T11:21:05.804Z,22.86
2023-04-11T11:23:36.102Z,22.06
2023-04-11T11:26:03.455Z,20.85
2023-04-11T11:28:30.118Z,20.95
2023-04-11T11:30:57.525Z,20.69
2023-04-11T11:33:28.662Z,20.61
2023-04-11T11:35:57.696Z,20.24
2023-04-11T11:38:29.284Z,18.93
2023-04-11T11:40:57.306Z,18.83
2023-04-11T11:43:27.331Z,18.07
2023-04-11T11:46:10.986Z,18.20
2023-04-11T11:48:37.955Z,18.61
2023-04-11T11:51:05.045Z,18.79
2023-04-11T11:53:32.244Z,19.33
2023-04-11T11:55:59.452Z,19.35
2023-04-11T11:58:27.228Z,19.13
2023-04-11T12:00:54.233Z,18.96
2023-04-11T12:03:24.238Z,19.44
2023-04-11T12:05:55.162Z,19.92
2023-04-11T12:08:22.267Z,18.96
2023-04-11T12:10:50.526Z,18.44
2023-04-11T12:13:26.586Z,18.07
2023-04-11T12:15:56.881Z,17.85
2023-04-11T12:18:25.090Z,17.90
2023-04-11T12:20:52.553Z,18.50
2023-04-11T12:23:19.720Z,18.93
2023-04-11T12:25:46.953Z,19.72
2023-04-11T12:28:14.235Z,19.00
2023-04-11T12:30:41.042Z,18.87
2023-04-11T12:33:07.824Z,18.97
2023-04-11T12:35:34.863Z,19.27
2023-04-11T12:38:01.792Z,18.96
2023-04-11T12:40:29.744Z,18.40
2023-04-11T12:42:57.635Z,18.55
2023-04-11T12:45:25.681Z,19.23
2023-04-11T12:47:53.757Z,19.82
2023-04-11T12:50:23.297Z,19.78
2023-04-11T12:52:50.287Z,20.13
2023-04-11T12:55:17.072Z,19.84
2023-04-11T12:57:43.954Z,20.51
2023-04-11T13:00:12.770Z,20.50
2023-04-11T13:02:44.074Z,19.46
2023-04-11T13:05:14.240Z,19.78
2023-04-11T13:07:42.225Z,19.73
2023-04-11T13:10:09.504Z,19.42
2023-04-11T13:12:41.863Z,19.62
2023-04-11T13:15:11.921Z,19.61
2023-04-11T13:17:39.204Z,19.73
2023-04-11T13:20:07.826Z,19.47
2023-04-11T13:22:34.565Z,19.71
2023-04-11T13:25:01.403Z,19.43
2023-04-11T13:27:28.215Z,19.74
2023-04-11T13:29:54.984Z,19.94
2023-04-11T13:32:21.757Z,20.07
2023-04-11T13:34:48.555Z,20.14
2023-04-11T13:37:15.297Z,19.45
2023-04-11T13:39:42.690Z,19.41
2023-04-11T13:42:10.155Z,20.00
2023-04-11T13:44:36.957Z,20.34
2023-04-11T13:47:03.722Z,20.06
2023-04-11T13:49:30.604Z,20.06
2023-04-11T13:51:57.411Z,19.66
2023-04-11T13:54:24.352Z,20.15
2023-04-11T13:56:51.051Z,20.55
2023-04-11T13:59:17.912Z,19.96
2023-04-11T14:01:44.718Z,20.11
2023-04-11T14:04:11.977Z,19.70
2023-04-11T14:06:39.637Z,19.95
2023-04-11T14:09:06.399Z,20.20
2023-04-11T14:11:33.492Z,20.38
2023-04-11T14:14:00.194Z,20.30
2023-04-11T14:16:26.928Z,20.43
2023-04-11T14:18:53.628Z,20.30
2023-04-11T14:21:21.084Z,19.47
2023-04-11T14:23:48.625Z,19.82
2023-04-11T14:26:15.440Z,19.36
2023-04-11T14:28:42.148Z,19.37
2023-04-11T14:31:09.648Z,19.49
2023-04-11T14:33:36.696Z,19.34
2023-04-11T14:36:03.547Z,19.29
2023-04-11T14:38:30.731Z,18.93
2023-04-11T14:40:57.563Z,18.98
2023-04-11T14:43:24.271Z,18.77
2023-04-11T14:45:55.564Z,19.07
2023-04-11T14:48:22.315Z,19.24
2023-04-11T14:50:49.015Z,19.33
2023-04-11T14:53:16.646Z,19.85
2023-04-11T14:55:44.650Z,19.89
2023-04-11T14:58:11.516Z,20.12
2023-04-11T15:00:38.221Z,20.29
2023-04-11T15:03:05.081Z,20.20
2023-04-11T15:05:31.995Z,19.85
2023-04-11T15:07:58.763Z,19.25
2023-04-11T15:10:26.065Z,18.79
2023-04-11T15:12:53.274Z,18.60
2023-04-11T15:15:20.034Z,19.06
2023-04-11T15:17:49.286Z,19.04
2023-04-11T15:20:16.850Z,18.84
2023-04-11T15:22:45.626Z,18.91
2023-04-11T15:25:14.861Z,18.76
2023-04-11T15:27:42.582Z,18.96
2023-04-11T15:30:10.425Z,18.89
2023-04-11T15:32:43.296Z,18.82
2023-04-11T15:35:10.637Z,18.98
2023-04-11T15:37:37.376Z,18.98
2023-04-11T15:40:07.794Z,18.57
2023-04-11T15:42:35.544Z,18.70
2023-04-11T15:45:02.807Z,18.70
2023-04-11T15:47:30.238Z,18.54
2023-04-11T15:49:58.964Z,18.43
2023-04-11T15:52:26.330Z,18.14
2023-04-11T15:54:53.318Z,18.28
2023-04-11T15:57:20.079Z,18.33
2023-04-11T15:59:47.228Z,18.30
2023-04-11T16:02:15.189Z,18.46
2023-04-11T16:04:46.212Z,18.33
2023-04-11T16:07:18.184Z,18.48
2023-04-11T16:09:45.168Z,18.57
2023-04-11T16:12:11.906Z,18.61
2023-04-11T16:14:38.698Z,18.61
2023-04-11T16:17:05.449Z,18.37
2023-04-11T16:19:32.271Z,18.21
2023-04-11T16:21:58.953Z,18.05
2023-04-11T16:24:28.044Z,17.54
2023-04-11T16:26:54.712Z,17.69
2023-04-11T16:29:21.566Z,17.71
2023-04-11T16:31:48.503Z,17.75
2023-04-11T16:34:15.279Z,17.76
2023-04-11T16:36:41.983Z,17.99
2023-04-11T16:39:08.765Z,18.20
2023-04-11T16:41:37.742Z,18.19
2023-04-11T16:44:11.585Z,17.98
2023-04-11T16:46:39.586Z,17.60
2023-04-11T16:49:06.547Z,17.46
2023-04-11T16:51:33.508Z,17.40
2023-04-11T16:54:00.408Z,17.15
2023-04-11T16:56:29.044Z,16.99
2023-04-11T16:58:56.117Z,17.06
2023-04-11T17:01:22.961Z,17.05
2023-04-11T17:03:52.273Z,16.65
2023-04-11T17:06:19.388Z,16.76
2023-04-11T17:08:46.105Z,16.71
2023-04-11T17:11:13.502Z,16.67
2023-04-11T17:13:45.569Z,17.01
2023-04-11T17:16:12.456Z,16.97
2023-04-11T17:18:40.017Z,16.83
2023-04-11T17:21:07.019Z,16.58
2023-04-11T17:23:42.644Z,16.95
2023-04-11T17:26:13.725Z,16.58
2023-04-11T17:28:40.884Z,16.43
2023-04-11T17:31:12.982Z,16.40
2023-04-11T17:33:40.431Z,16.59
2023-04-11T17:36:08.132Z,16.79
2023-04-11T17:38:36.518Z,16.71
2023-04-11T17:41:13.351Z,16.52
2023-04-11T17:43:40.999Z,16.18
2023-04-11T17:46:08.900Z,16.31
2023-04-11T17:48:36.599Z,16.13
2023-04-11T17:51:06.865Z,16.02
2023-04-11T17:53:33.978Z,16.11
2023-04-11T17:56:05.989Z,15.91
2023-04-11T17:58:33.537Z,16.09
2023-04-11T18:01:00.265Z,16.05
2023-04-11T18:03:27.368Z,16.06
2023-04-11T18:05:54.857Z,15.90
2023-04-11T18:08:35.469Z,15.92
2023-04-11T18:11:04.318Z,15.75
2023-04-11T18:13:31.664Z,15.82
2023-04-11T18:15:58.709Z,15.69
2023-04-11T18:18:25.582Z,15.92
2023-04-11T18:20:52.244Z,15.89
2023-04-11T18:23:19.014Z,15.99
2023-04-11T18:25:46.018Z,16.04
2023-04-11T18:28:12.740Z,16.10
2023-04-11T18:30:39.563Z,16.16
2023-04-11T18:33:06.493Z,16.10
2023-04-11T18:35:33.368Z,15.96
2023-04-11T18:38:00.256Z,16.23
2023-04-11T18:40:27.618Z,16.27
2023-04-11T18:42:56.259Z,16.24
2023-04-11T18:45:23.991Z,16.27
2023-04-11T18:47:51.183Z,16.30
2023-04-11T18:50:18.926Z,16.37
2023-04-11T18:52:46.689Z,16.26
2023-04-11T18:55:16.329Z,16.15
2023-04-11T18:57:46.342Z,16.24
2023-04-11T19:00:18.399Z,16.24
2023-04-11T19:02:46.064Z,16.20
2023-04-11T19:05:13.665Z,16.25
2023-04-11T19:07:42.288Z,16.13
2023-04-11T19:10:10.768Z,16.02
2023-04-11T19:12:37.787Z,16.17
2023-04-11T19:15:08.202Z,16.20
2023-04-11T19:17:36.479Z,16.19
2023-04-11T19:20:06.815Z,16.25
2023-04-11T19:22:35.880Z,16.11
2023-04-11T19:25:02.709Z,16.16
2023-04-11T19:27:29.667Z,16.13
2023-04-11T19:29:57.088Z,16.25
2023-04-11T19:32:23.901Z,16.23
2023-04-11T19:34:51.279Z,16.26
2023-04-11T19:37:19.451Z,16.28
2023-04-11T19:39:49.239Z,16.31
2023-04-11T19:42:19.033Z,16.30
2023-04-11T19:44:45.939Z,16.28
2023-04-11T19:47:12.707Z,16.22
2023-04-11T19:49:39.428Z,16.24
2023-04-11T19:52:06.337Z,16.27
2023-04-11T19:54:33.513Z,16.25
2023-04-11T19:57:00.668Z,16.22
2023-04-11T19:59:27.404Z,16.20
2023-04-11T20:01:54.402Z,16.19
2023-04-11T20:04:21.367Z,16.27
2023-04-11T20:06:50.675Z,16.23
2023-04-11T20:09:17.494Z,16.32
2023-04-11T20:11:47.084Z,16.31
2023-04-11T20:14:13.902Z,16.26
2023-04-11T20:16:40.770Z,16.27
2023-04-11T20:19:08.268Z,16.18
2023-04-11T20:21:34.964Z,16.18
2023-04-11T20:24:06.257Z,16.24
2023-04-11T20:26:32.951Z,16.13
2023-04-11T20:29:00.069Z,16.05
2023-04-11T20:31:29.696Z,15.96
2023-04-11T20:33:56.986Z,15.90
2023-04-11T20:36:24.011Z,15.87
2023-04-11T20:38:50.919Z,15.95
2023-04-11T20:41:19.221Z,15.98
2023-04-11T20:43:45.958Z,15.98
2023-04-11T20:46:13.611Z,15.97
2023-04-11T20:48:42.003Z,16.00
2023-04-11T20:51:09.064Z,15.96
2023-04-11T20:53:39.096Z,15.89
2023-04-11T20:56:06.175Z,15.87
2023-04-11T20:58:32.998Z,15.90
2023-04-11T21:00:59.809Z,15.87
2023-04-11T21:03:31.030Z,15.86
2023-04-11T21:05:59.016Z,15.86
2023-04-11T21:08:25.711Z,15.85
2023-04-11T21:10:52.425Z,15.87
2023-04-11T21:13:21.575Z,15.90
2023-04-11T21:15:48.337Z,15.85
2023-04-11T21:18:15.388Z,15.90
2023-04-11T21:20:42.234Z,15.89
2023-04-11T21:23:08.987Z,15.89
2023-04-11T21:25:36.932Z,15.86
2023-04-11T21:28:03.756Z,15.87
2023-04-11T21:30:30.711Z,15.75
2023-04-11T21:32:57.443Z,15.84
2023-04-11T21:35:24.332Z,15.82
2023-04-11T21:37:51.158Z,15.83
2023-04-11T21:40:17.934Z,15.85
2023-04-11T21:42:44.629Z,15.77
2023-04-11T21:45:11.439Z,15.54
2023-04-11T21:47:38.361Z,15.44
2023-04-11T21:50:05.629Z,15.46
2023-04-11T21:52:32.303Z,15.22
2023-04-11T21:54:58.984Z,15.48
2023-04-11T21:57:25.962Z,15.48
2023-04-11T21:59:52.645Z,15.47
2023-04-11T22:02:19.599Z,15.13
2023-04-11T22:05:04.020Z,14.71
2023-04-11T22:07:38.444Z,15.15
2023-04-11T22:10:09.504Z,15.21
2023-04-11T22:12:36.659Z,15.19
2023-04-11T22:15:05.247Z,15.14
2023-04-11T22:17:32.378Z,15.17
2023-04-11T22:19:59.256Z,15.20
2023-04-11T22:22:32.817Z,14.96
2023-04-11T22:25:00.027Z,14.97
2023-04-11T22:27:27.293Z,14.54
2023-04-11T22:29:56.225Z,14.54
2023-04-11T22:32:23.636Z,14.02
2023-04-11T22:34:50.585Z,14.55
2023-04-11T22:37:17.428Z,14.20
2023-04-11T22:39:44.208Z,14.45
2023-04-11T22:42:11.612Z,14.57
2023-04-11T22:44:38.410Z,14.56
2023-04-11T22:47:12.078Z,14.44
2023-04-11T22:49:41.867Z,14.57
2023-04-11T22:52:10.654Z,14.58
2023-04-11T22:54:40.930Z,14.71
2023-04-11T22:57:07.640Z,14.58
2023-04-11T22:59:34.286Z,14.65
2023-04-11T23:02:02.068Z,14.57
2023-04-11T23:04:30.999Z,14.35
2023-04-11T23:06:58.141Z,14.08
2023-04-11T23:09:24.930Z,14.02
2023-04-11T23:11:52.189Z,13.91
2023-04-11T23:14:20.835Z,14.08
2023-04-11T23:16:47.944Z,14.01
2023-04-11T23:19:14.737Z,14.11
2023-04-11T23:21:41.530Z,13.90
2023-04-11T23:24:09.096Z,14.07
2023-04-11T23:26:36.130Z,14.15
2023-04-11T23:29:03.568Z,14.12
2023-04-11T23:31:31.497Z,14.13
2023-04-11T23:34:02.434Z,14.22
2023-04-11T23:36:29.399Z,14.08
2023-04-11T23:38:56.671Z,14.09
2023-04-11T23:41:23.980Z,14.00
2023-04-11T23:43:51.165Z,13.94
2023-04-11T23:46:18.262Z,14.01
2023-04-11T23:48:46.874Z,13.97
2023-04-11T23:51:13.956Z,13.99
2023-04-11T23:53:41.145Z,13.96
2023-04-11T23:56:08.982Z,14.01
2023-04-11T23:58:35.955Z,14.06
